Hurst, TX (76053)

10:16 PM CDT on March 28, 2015 (GMT -0500)
Hurst Bell Station | | Change Station
CLOSE
Current Station
Personal Weather Station
Location: Hurst, TX
Elevation: 528 ft
Nearby Weather Stations

Elev 528 ft 32.81 °N, 97.15 °W | Updated 21 seconds ago

Clear
Clear
68.5 °F
Feels Like 68.5 °F
N
1.2
Wind Variable Wind from SE
Gusts 1.2 mph

Today
High -- | Low -- °F
--% Chance of Precip.
Yesterday
High -- | Low -- °F
Precip. -- in
7:22 AM 7:45 PM
Waxing Gibbous, 67% visible
Pressure 29.98 in
Visibility 10.0 miles
Clouds Few 18000 ft
Dew Point 49 °F
Humidity 49%
Rainfall 0.00 in
Snow Depth Not available.
UV 0 out of 12
Pollen 10.90 out of 12
Air Quality Not available.
Flu Activity Not available.
METAR KDFW 290253Z 13006KT 10SM FEW180 19/09 A2999 RMK AO2 SLP151 T01940089 53013

More Conditions Fewer Conditions

Pressure 29.98 in
Visibility 10.0 miles
Clouds Few 18000 ft
Dew Point 49 °F
Humidity 49%
Rainfall 0.00 in
Snow Depth Not available.
UV 0 out of 12
Pollen 10.90 out of 12
Air Quality Not available.
Flu Activity Not available.
METAR KDFW 290253Z 13006KT 10SM FEW180 19/09 A2999 RMK AO2 SLP151 T01940089 53013

More Conditions Fewer Conditions

10-Day Weather Forecast

Almanac

Astronomy

Mar. 28, 2015 Rise Set
Actual Time
Civil Twilight
Nautical Twilight
Astronomical Twilight
Moon
Length of Visible Light
Length of Day
Tomorrow will be .
, % of the Moon is Illuminated

Today's Extremes

State Highs State Lows

Community

WunderPhotos

Upload Photos

1,809,174 photos uploaded!

WunderBlogs® & News

Nearby

Air Quality

  Air Quality AQ Index Pollutant
Not available.

Snow Depth

Station Depth Elevation

Earthquake Activity

City Distance Mag. Time & Date
Minimum magnitude displayed is 2.5.

Coastal Water Temperatures

Place Temperature

Stations

Nearby Weather Stations

Station Location Temp. Windchill Dew Point Humidity Wind Precip. Elev Updated Type